Terminal Aerodrome Forecast
Issued by NWS Grand Junction, CO

Home | Current Version | Previous Version | Text Only | Print | Product List | Glossary On
Versions: 1 2 3 4 5 6 7 8 9 10 11 12 13 14 15 16 17 18 19 20 21 22 23 24
000
FTUS45 KGJT 312337
TAFGJT
TAF
KGJT 312337Z 0100/0124 23008KT P6SM SCT150
     FM010200 06008KT P6SM SCT120 SCT200
     FM010600 12008KT P6SM SCT120 SCT200
     FM011500 15006KT P6SM SCT120 BKN200
     FM011900 28008KT P6SM SCT100 BKN150=

USA.gov is the U.S. government's official web portal to all federal, state and local government web resources and services.